Bill Berry (bbr) — WDB8998 — position and weather

sailwx.info

Track history (hours):
 
Tides and Currents Weather Stations Pressure Air Temp Water Temp Dewpoint Dewpoint Depression Visibility Wind Speed Wind Dir Waves Ship Positions

Bill Berry (bbr)

Owner: INGRAM BARGE COMPANY, Nashville, TN. More information available from US FCC via Universal Licensing System and Coast Guard Vessel Documentation Center.

Last reported at 2015-Jun-29 23:28 UTC. Time now 2015-Jul-05 21:03 UTC.
Position N 39°03' W 084°53'.

Length 41 m; draft 3.5 m.

Type: Towing. MMSI: 366967630.

Date/timePositionNaut miles runAvg speedWind from/ knotsBaromVisibWave heightAir tempDewpointWater temp
2015-Jun-29 23:28N 39°03' W 084°53'6 6.0
2015-Jun-29 22:29N 39°07' W 084°48'0 0.2
2015-Jun-29 21:29N 39°07' W 084°48'0 0.2
2015-Jun-29 20:11N 39°07' W 084°48'0 0.4
2015-Jun-29 19:25N 39°07' W 084°48'0 0.4
2015-Jun-29 18:30N 39°07' W 084°48'0 0.2
2015-Jun-29 17:26N 39°07' W 084°48'0 0.3
2015-Jun-29 16:32N 39°07' W 084°48'0 0.4
2015-Jun-29 15:32N 39°07' W 084°48'0 0.2
2015-Jun-29 14:31N 39°07' W 084°48'0 0.1
2015-Jun-29 13:28N 39°07' W 084°48'1 0.6
2015-Jun-29 11:32N 39°07' W 084°47'3 3.3
2015-Jun-29 10:33N 39°08' W 084°43'6 5.9
2015-Jun-29 09:33N 39°04' W 084°37'6 6.0
2015-Jun-29 08:33N 39°06' W 084°30'4 4.1
2015-Jun-29 07:33N 39°03' W 084°26'6 6.1
2015-Jun-29 06:33N 39°01' W 084°19'6 6.2
2015-Jun-29 05:33N 38°55' W 084°15'6 6.3
2015-Jun-29 04:33N 38°49' W 084°13'3 2.7
2015-Jun-29 03:33N 38°48' W 084°10'12 0.5
2015-Jun-28 02:17N 38°46' W 083°55'8 4.4
2015-Jun-28 00:31N 38°46' W 084°05'5 4.8
2015-Jun-27 23:33N 38°48' W 084°10'2 1.7
2015-Jun-27 22:33N 38°48' W 084°12'4 3.7
2015-Jun-27 21:33N 38°52' W 084°14'4 3.8
2015-Jun-27 20:33N 38°55' W 084°16'4 4.0
2015-Jun-27 19:33N 38°59' W 084°18'4 3.8
2015-Jun-27 18:32N 39°02' W 084°21'4 4.0
2015-Jun-27 17:33N 39°03' W 084°25'4 3.8
2015-Jun-27 16:33N 39°07' W 084°27'3 2.7
2015-Jun-27 15:32N 39°06' W 084°30'3 2.9
2015-Jun-27 14:33N 39°05' W 084°34'3 3.3
2015-Jun-27 13:33N 39°05' W 084°38'3 3.0
2015-Jun-27 12:33N 39°06' W 084°41'4 3.8
2015-Jun-27 11:33N 39°09' W 084°45'8 3.5
2015-Jun-27 09:11N 39°04' W 084°53'  
2015-Jun-21 09:05N 39°02' W 084°53'4 6.9
2015-Jun-21 08:29N 39°06' W 084°50'6 6.5
2015-Jun-21 07:33N 39°08' W 084°43'7 7.3
2015-Jun-21 06:33N 39°05' W 084°34'7 6.5
2015-Jun-21 05:33N 39°06' W 084°26'7 7.0
2015-Jun-21 04:33N 39°01' W 084°19'8 8.6
2015-Jun-21 03:33N 38°54' W 084°14'7 6.7
2015-Jun-21 02:33N 38°48' W 084°10'4 3.4
2015-Jun-21 01:30N 38°47' W 084°06'30 1.8
2015-Jun-20 08:33N 38°41' W 083°29'0 0.0
2015-Jun-20 07:32N 38°41' W 083°29'0 0.1
2015-Jun-20 05:21N 38°41' W 083°29'4 2.4
2015-Jun-20 03:32N 38°41' W 083°34'  
Track history (hours):
 
Tides and Currents Weather Stations Pressure Air Temp Water Temp Dewpoint Dewpoint Depression Visibility Wind Speed Wind Dir Waves Ship Positions

Bill Berry (bbr)

Owner: INGRAM BARGE COMPANY, Nashville, TN. More information available from US FCC via Universal Licensing System and Coast Guard Vessel Documentation Center.

Last reported at 2015-Jun-29 23:28 UTC. Time now 2015-Jul-05 21:03 UTC.
Position N 39°03' W 084°53'.

Length 41 m; draft 3.5 m.

Type: Towing. MMSI: 366967630.

Date/timePositionNaut miles runAvg speedWind from/ knotsBaromVisibWave heightAir tempDewpointWater temp
2015-Jun-29 23:28N 39°03' W 084°53'6 6.0
2015-Jun-29 22:29N 39°07' W 084°48'0 0.2
2015-Jun-29 21:29N 39°07' W 084°48'0 0.2
2015-Jun-29 20:11N 39°07' W 084°48'0 0.4
2015-Jun-29 19:25N 39°07' W 084°48'0 0.4
2015-Jun-29 18:30N 39°07' W 084°48'0 0.2
2015-Jun-29 17:26N 39°07' W 084°48'0 0.3
2015-Jun-29 16:32N 39°07' W 084°48'0 0.4
2015-Jun-29 15:32N 39°07' W 084°48'0 0.2
2015-Jun-29 14:31N 39°07' W 084°48'0 0.1
2015-Jun-29 13:28N 39°07' W 084°48'1 0.6
2015-Jun-29 11:32N 39°07' W 084°47'3 3.3
2015-Jun-29 10:33N 39°08' W 084°43'6 5.9
2015-Jun-29 09:33N 39°04' W 084°37'6 6.0
2015-Jun-29 08:33N 39°06' W 084°30'4 4.1
2015-Jun-29 07:33N 39°03' W 084°26'6 6.1
2015-Jun-29 06:33N 39°01' W 084°19'6 6.2
2015-Jun-29 05:33N 38°55' W 084°15'6 6.3
2015-Jun-29 04:33N 38°49' W 084°13'3 2.7
2015-Jun-29 03:33N 38°48' W 084°10'12 0.5
2015-Jun-28 02:17N 38°46' W 083°55'8 4.4
2015-Jun-28 00:31N 38°46' W 084°05'5 4.8
2015-Jun-27 23:33N 38°48' W 084°10'2 1.7
2015-Jun-27 22:33N 38°48' W 084°12'4 3.7
2015-Jun-27 21:33N 38°52' W 084°14'4 3.8
2015-Jun-27 20:33N 38°55' W 084°16'4 4.0
2015-Jun-27 19:33N 38°59' W 084°18'4 3.8
2015-Jun-27 18:32N 39°02' W 084°21'4 4.0
2015-Jun-27 17:33N 39°03' W 084°25'4 3.8
2015-Jun-27 16:33N 39°07' W 084°27'3 2.7
2015-Jun-27 15:32N 39°06' W 084°30'3 2.9
2015-Jun-27 14:33N 39°05' W 084°34'3 3.3
2015-Jun-27 13:33N 39°05' W 084°38'3 3.0
2015-Jun-27 12:33N 39°06' W 084°41'4 3.8
2015-Jun-27 11:33N 39°09' W 084°45'8 3.5
2015-Jun-27 09:11N 39°04' W 084°53'  
2015-Jun-21 09:05N 39°02' W 084°53'4 6.9
2015-Jun-21 08:29N 39°06' W 084°50'6 6.5
2015-Jun-21 07:33N 39°08' W 084°43'7 7.3
2015-Jun-21 06:33N 39°05' W 084°34'7 6.5
2015-Jun-21 05:33N 39°06' W 084°26'7 7.0
2015-Jun-21 04:33N 39°01' W 084°19'8 8.6
2015-Jun-21 03:33N 38°54' W 084°14'7 6.7
2015-Jun-21 02:33N 38°48' W 084°10'4 3.4
2015-Jun-21 01:30N 38°47' W 084°06'30 1.8
2015-Jun-20 08:33N 38°41' W 083°29'0 0.0
2015-Jun-20 07:32N 38°41' W 083°29'0 0.1
2015-Jun-20 05:21N 38°41' W 083°29'4 2.4
2015-Jun-20 03:32N 38°41' W 083°34'  

Dump ship's entire track history